Watertown Regional Airport
KATY : now visible

Airfield :











YOU CAN JOIN US ON...

 
LOGIN :

Register | Disclaimer

   EN    FR    IT 

 









Legend :    VFR   Marginal VFR   IFR   Intensive IFR   Very Intensive IFR
Visi :
Ceiling :
>= 8 km
>= 3000ft
5 to 8 km
1000 to 3000 ft
1500m to 5 km
500 to 1000 ft
800 to 1500m
200 to 500 ft
< 800m
< 200 ft
Symbols :   Thunderstorms  Fog  Heavy snow  Heavy precipitations  Wind > 20 kt






- Airport Elevation : 1749 ft
- IATA code : ATY


KATY - Watertown Regional

CURRENT METAR :
  • 050153Z AUTO 17010KT 10SM FEW075 BKN110 21/18 A2995 RMK AO2 SLP137 T02060183

EXPIRED METARs :
  • 050053Z AUTO 15008KT 10SM OVC110 22/18 A2996 RMK AO2 RAB02E51 SLP140 P0003 T02170183
  • 042353Z AUTO 18008KT 10SM FEW039 BKN100 24/17 A2997 RMK AO2 SLP144 T02390172 10267 20233 56003

TAF KATY
Valid from the 05 at 00:00 until the 06 at 00:00 UTC


042339Z 0500/0524 18011KT P6SM BKN080
TEMPO 0500/0502 P6SM -SHRA BKN060
FM050500 18005KT P6SM BKN200
FM051900 32014KT P6SM SCT250
KZMP FIR / North America



MET'MAP, your aeronautical weather chart ! - Copyright ORBIFLY December 2007 - Disclaimer

ORBIFLY MET'MAP TEAM :

Programming & Development : Alexandra Zaïnal
Concept & original design : Baudouin d'Aumeries
Assistance for programming : Marc-Olivier Méhu
Technical & hardware support : Manuel Goepfert

Contact : metmap@orbifly.com




SOURCES & CREDITS :

   NOAA       Earth
Advisory